sensor_id;sensor_type;location;lat;lon;timestamp;P1;durP1;ratioP1;P2;durP2;ratioP2
6420;SDS011;3243;50.958;7.012;2022-07-29T00:02:24;5.93;;;2.25;;
6420;SDS011;3243;50.958;7.012;2022-07-29T00:04:52;3.27;;;2.33;;
6420;SDS011;3243;50.958;7.012;2022-07-29T00:07:18;4.50;;;2.10;;
6420;SDS011;3243;50.958;7.012;2022-07-29T00:09:46;5.35;;;2.00;;
6420;SDS011;3243;50.958;7.012;2022-07-29T00:12:18;4.60;;;1.90;;
6420;SDS011;3243;50.958;7.012;2022-07-29T00:14:55;3.77;;;2.00;;
6420;SDS011;3243;50.958;7.012;2022-07-29T00:17:23;3.17;;;2.07;;
6420;SDS011;3243;50.958;7.012;2022-07-29T00:19:50;4.83;;;1.90;;
6420;SDS011;3243;50.958;7.012;2022-07-29T00:22:17;4.07;;;1.80;;
6420;SDS011;3243;50.958;7.012;2022-07-29T00:24:44;2.67;;;1.63;;
6420;SDS011;3243;50.958;7.012;2022-07-29T00:27:11;3.67;;;2.03;;
6420;SDS011;3243;50.958;7.012;2022-07-29T00:29:39;4.43;;;1.95;;
6420;SDS011;3243;50.958;7.012;2022-07-29T00:32:06;3.33;;;2.00;;
6420;SDS011;3243;50.958;7.012;2022-07-29T00:34:33;3.88;;;2.05;;
6420;SDS011;3243;50.958;7.012;2022-07-29T00:37:19;3.78;;;2.05;;
6420;SDS011;3243;50.958;7.012;2022-07-29T00:39:46;5.83;;;2.17;;
6420;SDS011;3243;50.958;7.012;2022-07-29T00:42:13;5.25;;;2.13;;
6420;SDS011;3243;50.958;7.012;2022-07-29T00:44:40;5.15;;;2.00;;
6420;SDS011;3243;50.958;7.012;2022-07-29T00:47:08;2.92;;;2.05;;
6420;SDS011;3243;50.958;7.012;2022-07-29T00:49:36;5.53;;;2.15;;
6420;SDS011;3243;50.958;7.012;2022-07-29T00:52:06;3.97;;;1.98;;
6420;SDS011;3243;50.958;7.012;2022-07-29T00:54:34;3.35;;;2.10;;
6420;SDS011;3243;50.958;7.012;2022-07-29T00:57:10;4.60;;;2.60;;
6420;SDS011;3243;50.958;7.012;2022-07-29T00:59:38;3.30;;;1.90;;
6420;SDS011;3243;50.958;7.012;2022-07-29T01:02:05;3.85;;;2.10;;
6420;SDS011;3243;50.958;7.012;2022-07-29T01:04:32;3.70;;;2.15;;
6420;SDS011;3243;50.958;7.012;2022-07-29T01:07:02;4.50;;;1.93;;
6420;SDS011;3243;50.958;7.012;2022-07-29T01:09:34;3.53;;;1.90;;
6420;SDS011;3243;50.958;7.012;2022-07-29T01:12:16;5.30;;;2.43;;
6420;SDS011;3243;50.958;7.012;2022-07-29T01:14:46;3.20;;;2.23;;
6420;SDS011;3243;50.958;7.012;2022-07-29T01:17:28;7.30;;;2.90;;
6420;SDS011;3243;50.958;7.012;2022-07-29T01:23:03;9.80;;;2.50;;
6420;SDS011;3243;50.958;7.012;2022-07-29T01:31:18;5.47;;;2.50;;
6420;SDS011;3243;50.958;7.012;2022-07-29T01:33:55;6.00;;;2.50;;
6420;SDS011;3243;50.958;7.012;2022-07-29T01:36:32;4.53;;;2.10;;
6420;SDS011;3243;50.958;7.012;2022-07-29T01:39:14;6.55;;;2.45;;
6420;SDS011;3243;50.958;7.012;2022-07-29T01:44:50;7.50;;;2.53;;
6420;SDS011;3243;50.958;7.012;2022-07-29T01:47:34;5.75;;;2.33;;
6420;SDS011;3243;50.958;7.012;2022-07-29T01:50:08;5.67;;;2.53;;
6420;SDS011;3243;50.958;7.012;2022-07-29T01:52:53;6.93;;;2.38;;
6420;SDS011;3243;50.958;7.012;2022-07-29T01:55:24;5.63;;;2.20;;
6420;SDS011;3243;50.958;7.012;2022-07-29T01:57:54;5.13;;;2.30;;
6420;SDS011;3243;50.958;7.012;2022-07-29T02:00:23;4.32;;;2.15;;
6420;SDS011;3243;50.958;7.012;2022-07-29T02:02:52;5.47;;;2.23;;
6420;SDS011;3243;50.958;7.012;2022-07-29T02:05:29;2.80;;;2.17;;
6420;SDS011;3243;50.958;7.012;2022-07-29T02:08:08;4.10;;;2.43;;
6420;SDS011;3243;50.958;7.012;2022-07-29T02:10:37;4.47;;;2.10;;
6420;SDS011;3243;50.958;7.012;2022-07-29T02:13:06;4.67;;;2.20;;
6420;SDS011;3243;50.958;7.012;2022-07-29T02:15:35;4.00;;;2.03;;
6420;SDS011;3243;50.958;7.012;2022-07-29T02:18:24;4.87;;;1.97;;
6420;SDS011;3243;50.958;7.012;2022-07-29T02:20:52;5.13;;;2.37;;
6420;SDS011;3243;50.958;7.012;2022-07-29T02:23:22;4.00;;;2.30;;
6420;SDS011;3243;50.958;7.012;2022-07-29T02:25:54;5.27;;;2.20;;
6420;SDS011;3243;50.958;7.012;2022-07-29T02:28:22;4.20;;;2.23;;
6420;SDS011;3243;50.958;7.012;2022-07-29T02:30:53;3.87;;;2.00;;
6420;SDS011;3243;50.958;7.012;2022-07-29T02:33:25;3.83;;;2.40;;
6420;SDS011;3243;50.958;7.012;2022-07-29T02:35:55;5.33;;;2.50;;
6420;SDS011;3243;50.958;7.012;2022-07-29T02:38:23;2.97;;;2.07;;
6420;SDS011;3243;50.958;7.012;2022-07-29T02:41:11;3.77;;;2.70;;
6420;SDS011;3243;50.958;7.012;2022-07-29T02:43:41;4.57;;;2.20;;
6420;SDS011;3243;50.958;7.012;2022-07-29T02:46:11;5.57;;;2.60;;
6420;SDS011;3243;50.958;7.012;2022-07-29T02:48:59;4.47;;;2.30;;
6420;SDS011;3243;50.958;7.012;2022-07-29T02:51:36;5.10;;;2.40;;
6420;SDS011;3243;50.958;7.012;2022-07-29T02:54:10;3.43;;;1.90;;
6420;SDS011;3243;50.958;7.012;2022-07-29T02:56:44;3.80;;;2.20;;
6420;SDS011;3243;50.958;7.012;2022-07-29T02:59:12;5.67;;;2.30;;
6420;SDS011;3243;50.958;7.012;2022-07-29T03:01:42;4.00;;;2.30;;
6420;SDS011;3243;50.958;7.012;2022-07-29T03:04:11;4.53;;;2.30;;
6420;SDS011;3243;50.958;7.012;2022-07-29T03:06:40;5.33;;;2.17;;
6420;SDS011;3243;50.958;7.012;2022-07-29T03:09:08;4.30;;;2.40;;
6420;SDS011;3243;50.958;7.012;2022-07-29T03:11:39;5.20;;;2.30;;
6420;SDS011;3243;50.958;7.012;2022-07-29T03:14:18;5.47;;;2.20;;
6420;SDS011;3243;50.958;7.012;2022-07-29T03:16:46;2.97;;;2.10;;
6420;SDS011;3243;50.958;7.012;2022-07-29T03:19:14;4.50;;;2.13;;
6420;SDS011;3243;50.958;7.012;2022-07-29T03:21:42;3.37;;;2.00;;
6420;SDS011;3243;50.958;7.012;2022-07-29T03:24:09;5.30;;;2.30;;
6420;SDS011;3243;50.958;7.012;2022-07-29T03:26:36;4.33;;;2.13;;
6420;SDS011;3243;50.958;7.012;2022-07-29T03:29:16;5.20;;;1.83;;
6420;SDS011;3243;50.958;7.012;2022-07-29T03:31:45;3.50;;;2.10;;
6420;SDS011;3243;50.958;7.012;2022-07-29T03:34:13;4.33;;;1.90;;
6420;SDS011;3243;50.958;7.012;2022-07-29T03:36:41;3.77;;;1.73;;
6420;SDS011;3243;50.958;7.012;2022-07-29T03:39:08;3.53;;;1.93;;
6420;SDS011;3243;50.958;7.012;2022-07-29T03:41:36;4.63;;;2.10;;
6420;SDS011;3243;50.958;7.012;2022-07-29T03:44:05;6.27;;;2.17;;
6420;SDS011;3243;50.958;7.012;2022-07-29T03:46:33;3.40;;;1.90;;
6420;SDS011;3243;50.958;7.012;2022-07-29T03:49:02;5.77;;;2.00;;
6420;SDS011;3243;50.958;7.012;2022-07-29T03:51:31;2.27;;;1.80;;
6420;SDS011;3243;50.958;7.012;2022-07-29T03:54:00;3.78;;;1.92;;
6420;SDS011;3243;50.958;7.012;2022-07-29T03:56:42;4.57;;;2.27;;
6420;SDS011;3243;50.958;7.012;2022-07-29T03:59:15;5.20;;;1.90;;
6420;SDS011;3243;50.958;7.012;2022-07-29T04:01:43;5.53;;;2.07;;
6420;SDS011;3243;50.958;7.012;2022-07-29T04:04:10;5.77;;;2.20;;
6420;SDS011;3243;50.958;7.012;2022-07-29T04:06:38;6.87;;;2.20;;
6420;SDS011;3243;50.958;7.012;2022-07-29T04:09:07;5.68;;;2.30;;
6420;SDS011;3243;50.958;7.012;2022-07-29T04:11:35;4.70;;;2.10;;
6420;SDS011;3243;50.958;7.012;2022-07-29T04:14:24;5.57;;;2.20;;
6420;SDS011;3243;50.958;7.012;2022-07-29T04:16:50;8.53;;;2.00;;
6420;SDS011;3243;50.958;7.012;2022-07-29T04:19:17;5.47;;;2.80;;
6420;SDS011;3243;50.958;7.012;2022-07-29T04:21:44;6.53;;;2.80;;
6420;SDS011;3243;50.958;7.012;2022-07-29T04:24:11;11.07;;;3.70;;
6420;SDS011;3243;50.958;7.012;2022-07-29T04:26:38;8.33;;;2.70;;
6420;SDS011;3243;50.958;7.012;2022-07-29T04:29:05;7.63;;;2.83;;
6420;SDS011;3243;50.958;7.012;2022-07-29T04:31:32;6.73;;;2.57;;
6420;SDS011;3243;50.958;7.012;2022-07-29T04:33:59;6.83;;;2.50;;
6420;SDS011;3243;50.958;7.012;2022-07-29T04:36:26;6.17;;;2.30;;
6420;SDS011;3243;50.958;7.012;2022-07-29T04:38:55;6.03;;;2.20;;
6420;SDS011;3243;50.958;7.012;2022-07-29T04:41:22;6.83;;;2.67;;
6420;SDS011;3243;50.958;7.012;2022-07-29T04:43:58;7.63;;;2.53;;
6420;SDS011;3243;50.958;7.012;2022-07-29T04:46:27;4.33;;;2.33;;
6420;SDS011;3243;50.958;7.012;2022-07-29T04:48:54;4.03;;;2.40;;
6420;SDS011;3243;50.958;7.012;2022-07-29T04:51:21;6.87;;;2.30;;
6420;SDS011;3243;50.958;7.012;2022-07-29T04:53:48;6.33;;;2.27;;
6420;SDS011;3243;50.958;7.012;2022-07-29T04:56:15;5.60;;;2.30;;
6420;SDS011;3243;50.958;7.012;2022-07-29T04:58:41;5.47;;;2.58;;
6420;SDS011;3243;50.958;7.012;2022-07-29T05:01:08;4.10;;;1.80;;
6420;SDS011;3243;50.958;7.012;2022-07-29T05:03:35;6.43;;;1.97;;
6420;SDS011;3243;50.958;7.012;2022-07-29T05:06:02;5.43;;;2.23;;
6420;SDS011;3243;50.958;7.012;2022-07-29T05:08:28;4.97;;;1.90;;
6420;SDS011;3243;50.958;7.012;2022-07-29T05:10:56;5.97;;;2.00;;
6420;SDS011;3243;50.958;7.012;2022-07-29T05:13:37;6.90;;;2.23;;
6420;SDS011;3243;50.958;7.012;2022-07-29T05:16:11;3.77;;;2.13;;
6420;SDS011;3243;50.958;7.012;2022-07-29T05:18:39;5.33;;;2.57;;
6420;SDS011;3243;50.958;7.012;2022-07-29T05:21:06;6.67;;;2.00;;
6420;SDS011;3243;50.958;7.012;2022-07-29T05:23:33;4.93;;;2.03;;
6420;SDS011;3243;50.958;7.012;2022-07-29T05:26:00;6.40;;;1.90;;
6420;SDS011;3243;50.958;7.012;2022-07-29T05:28:26;4.17;;;2.00;;
6420;SDS011;3243;50.958;7.012;2022-07-29T05:30:53;5.70;;;2.17;;
6420;SDS011;3243;50.958;7.012;2022-07-29T05:33:20;10.23;;;2.40;;
6420;SDS011;3243;50.958;7.012;2022-07-29T05:36:01;4.30;;;2.20;;
6420;SDS011;3243;50.958;7.012;2022-07-29T05:38:28;5.32;;;1.98;;
6420;SDS011;3243;50.958;7.012;2022-07-29T05:40:56;4.03;;;2.03;;
6420;SDS011;3243;50.958;7.012;2022-07-29T05:43:24;6.32;;;2.10;;
6420;SDS011;3243;50.958;7.012;2022-07-29T05:45:51;2.87;;;1.93;;
6420;SDS011;3243;50.958;7.012;2022-07-29T05:48:18;4.27;;;1.80;;
6420;SDS011;3243;50.958;7.012;2022-07-29T05:50:45;4.43;;;2.40;;
6420;SDS011;3243;50.958;7.012;2022-07-29T05:53:12;3.63;;;2.10;;
6420;SDS011;3243;50.958;7.012;2022-07-29T05:55:45;6.10;;;2.20;;
6420;SDS011;3243;50.958;7.012;2022-07-29T05:58:12;6.03;;;2.30;;
6420;SDS011;3243;50.958;7.012;2022-07-29T06:00:39;4.35;;;2.10;;
6420;SDS011;3243;50.958;7.012;2022-07-29T06:03:06;5.38;;;2.15;;
6420;SDS011;3243;50.958;7.012;2022-07-29T06:05:32;6.35;;;2.20;;
6420;SDS011;3243;50.958;7.012;2022-07-29T06:07:59;3.08;;;1.80;;
6420;SDS011;3243;50.958;7.012;2022-07-29T06:10:26;4.05;;;2.20;;
6420;SDS011;3243;50.958;7.012;2022-07-29T06:12:53;4.70;;;1.83;;
6420;SDS011;3243;50.958;7.012;2022-07-29T06:15:19;5.53;;;2.10;;
6420;SDS011;3243;50.958;7.012;2022-07-29T06:17:46;5.82;;;2.15;;
6420;SDS011;3243;50.958;7.012;2022-07-29T06:20:29;4.13;;;2.05;;
6420;SDS011;3243;50.958;7.012;2022-07-29T06:22:57;5.05;;;2.17;;
6420;SDS011;3243;50.958;7.012;2022-07-29T06:25:25;6.15;;;1.95;;
6420;SDS011;3243;50.958;7.012;2022-07-29T06:27:52;3.58;;;2.25;;
6420;SDS011;3243;50.958;7.012;2022-07-29T06:30:18;5.88;;;2.08;;
6420;SDS011;3243;50.958;7.012;2022-07-29T06:32:45;7.13;;;2.30;;
6420;SDS011;3243;50.958;7.012;2022-07-29T06:35:13;6.93;;;2.15;;
6420;SDS011;3243;50.958;7.012;2022-07-29T06:38:00;9.13;;;2.30;;
6420;SDS011;3243;50.958;7.012;2022-07-29T06:40:27;6.72;;;3.42;;
6420;SDS011;3243;50.958;7.012;2022-07-29T06:43:12;5.70;;;2.95;;
6420;SDS011;3243;50.958;7.012;2022-07-29T06:45:39;4.32;;;2.47;;
6420;SDS011;3243;50.958;7.012;2022-07-29T06:48:08;3.42;;;2.30;;
6420;SDS011;3243;50.958;7.012;2022-07-29T06:50:35;5.65;;;2.00;;
6420;SDS011;3243;50.958;7.012;2022-07-29T06:53:02;3.88;;;2.08;;
6420;SDS011;3243;50.958;7.012;2022-07-29T06:55:30;6.10;;;2.40;;
6420;SDS011;3243;50.958;7.012;2022-07-29T06:57:56;4.28;;;2.20;;
6420;SDS011;3243;50.958;7.012;2022-07-29T07:00:23;4.40;;;2.30;;
6420;SDS011;3243;50.958;7.012;2022-07-29T07:02:50;5.90;;;1.90;;
6420;SDS011;3243;50.958;7.012;2022-07-29T07:05:17;5.60;;;2.88;;
6420;SDS011;3243;50.958;7.012;2022-07-29T07:07:43;4.47;;;1.92;;
6420;SDS011;3243;50.958;7.012;2022-07-29T07:10:10;7.47;;;2.10;;
6420;SDS011;3243;50.958;7.012;2022-07-29T07:12:37;6.10;;;2.10;;
6420;SDS011;3243;50.958;7.012;2022-07-29T07:15:04;5.83;;;2.20;;
6420;SDS011;3243;50.958;7.012;2022-07-29T07:17:31;6.07;;;2.00;;
6420;SDS011;3243;50.958;7.012;2022-07-29T07:19:58;8.45;;;3.05;;
6420;SDS011;3243;50.958;7.012;2022-07-29T07:22:25;4.82;;;1.88;;
6420;SDS011;3243;50.958;7.012;2022-07-29T07:24:51;5.32;;;1.80;;
6420;SDS011;3243;50.958;7.012;2022-07-29T07:27:18;7.93;;;2.40;;
6420;SDS011;3243;50.958;7.012;2022-07-29T07:29:45;4.60;;;1.90;;
6420;SDS011;3243;50.958;7.012;2022-07-29T07:32:12;6.75;;;2.30;;
6420;SDS011;3243;50.958;7.012;2022-07-29T07:34:39;8.98;;;2.00;;
6420;SDS011;3243;50.958;7.012;2022-07-29T07:37:06;3.90;;;1.95;;
6420;SDS011;3243;50.958;7.012;2022-07-29T07:39:33;4.82;;;2.00;;
6420;SDS011;3243;50.958;7.012;2022-07-29T07:42:00;3.03;;;1.90;;
6420;SDS011;3243;50.958;7.012;2022-07-29T07:44:27;5.63;;;2.30;;
6420;SDS011;3243;50.958;7.012;2022-07-29T07:46:54;5.97;;;2.10;;
6420;SDS011;3243;50.958;7.012;2022-07-29T07:49:21;8.90;;;1.80;;
6420;SDS011;3243;50.958;7.012;2022-07-29T07:51:48;6.75;;;2.40;;
6420;SDS011;3243;50.958;7.012;2022-07-29T07:54:16;8.38;;;2.10;;
6420;SDS011;3243;50.958;7.012;2022-07-29T07:56:45;4.18;;;2.10;;
6420;SDS011;3243;50.958;7.012;2022-07-29T07:59:18;4.78;;;2.42;;
6420;SDS011;3243;50.958;7.012;2022-07-29T08:01:45;6.25;;;2.38;;
6420;SDS011;3243;50.958;7.012;2022-07-29T08:04:20;5.93;;;2.10;;
6420;SDS011;3243;50.958;7.012;2022-07-29T08:06:53;8.00;;;2.60;;
6420;SDS011;3243;50.958;7.012;2022-07-29T08:09:21;8.05;;;2.83;;
6420;SDS011;3243;50.958;7.012;2022-07-29T08:11:55;5.93;;;3.00;;
6420;SDS011;3243;50.958;7.012;2022-07-29T08:14:23;6.90;;;2.53;;
6420;SDS011;3243;50.958;7.012;2022-07-29T08:16:49;7.53;;;2.47;;
6420;SDS011;3243;50.958;7.012;2022-07-29T08:19:17;7.20;;;2.28;;
6420;SDS011;3243;50.958;7.012;2022-07-29T08:21:44;5.00;;;2.38;;
6420;SDS011;3243;50.958;7.012;2022-07-29T08:24:11;8.07;;;2.70;;
6420;SDS011;3243;50.958;7.012;2022-07-29T08:26:56;11.45;;;3.25;;
6420;SDS011;3243;50.958;7.012;2022-07-29T08:29:23;8.10;;;2.55;;
6420;SDS011;3243;50.958;7.012;2022-07-29T08:31:50;6.95;;;2.17;;
6420;SDS011;3243;50.958;7.012;2022-07-29T08:34:17;7.95;;;2.70;;
6420;SDS011;3243;50.958;7.012;2022-07-29T08:36:52;4.13;;;2.38;;
6420;SDS011;3243;50.958;7.012;2022-07-29T08:39:18;7.85;;;2.42;;
6420;SDS011;3243;50.958;7.012;2022-07-29T08:41:45;4.15;;;2.50;;
6420;SDS011;3243;50.958;7.012;2022-07-29T08:44:22;8.63;;;2.53;;
6420;SDS011;3243;50.958;7.012;2022-07-29T08:46:56;6.80;;;2.60;;
6420;SDS011;3243;50.958;7.012;2022-07-29T08:49:23;7.28;;;2.40;;
6420;SDS011;3243;50.958;7.012;2022-07-29T08:51:50;10.63;;;2.65;;
6420;SDS011;3243;50.958;7.012;2022-07-29T08:54:20;4.95;;;1.92;;
6420;SDS011;3243;50.958;7.012;2022-07-29T08:56:49;9.90;;;4.55;;
6420;SDS011;3243;50.958;7.012;2022-07-29T08:59:20;7.50;;;2.20;;
6420;SDS011;3243;50.958;7.012;2022-07-29T09:01:51;5.97;;;2.38;;
6420;SDS011;3243;50.958;7.012;2022-07-29T09:04:20;5.20;;;2.40;;
6420;SDS011;3243;50.958;7.012;2022-07-29T09:06:48;4.72;;;2.38;;
6420;SDS011;3243;50.958;7.012;2022-07-29T09:09:17;3.50;;;1.90;;
6420;SDS011;3243;50.958;7.012;2022-07-29T09:11:44;5.65;;;2.15;;
6420;SDS011;3243;50.958;7.012;2022-07-29T09:14:11;6.65;;;2.15;;
6420;SDS011;3243;50.958;7.012;2022-07-29T09:16:49;7.93;;;2.75;;
6420;SDS011;3243;50.958;7.012;2022-07-29T09:19:28;9.35;;;2.75;;
6420;SDS011;3243;50.958;7.012;2022-07-29T09:22:01;9.85;;;2.58;;
6420;SDS011;3243;50.958;7.012;2022-07-29T09:27:11;6.93;;;2.60;;
6420;SDS011;3243;50.958;7.012;2022-07-29T09:32:30;5.70;;;2.50;;
6420;SDS011;3243;50.958;7.012;2022-07-29T09:37:43;5.90;;;2.40;;
6420;SDS011;3243;50.958;7.012;2022-07-29T09:40:11;11.98;;;3.20;;
6420;SDS011;3243;50.958;7.012;2022-07-29T09:42:42;7.93;;;2.90;;
6420;SDS011;3243;50.958;7.012;2022-07-29T09:45:10;9.90;;;3.42;;
6420;SDS011;3243;50.958;7.012;2022-07-29T09:47:45;7.32;;;2.97;;
6420;SDS011;3243;50.958;7.012;2022-07-29T09:50:19;8.70;;;2.97;;
6420;SDS011;3243;50.958;7.012;2022-07-29T09:53:06;6.13;;;2.60;;
6420;SDS011;3243;50.958;7.012;2022-07-29T09:55:48;6.00;;;2.83;;
6420;SDS011;3243;50.958;7.012;2022-07-29T09:58:20;5.13;;;2.75;;
6420;SDS011;3243;50.958;7.012;2022-07-29T10:00:49;5.70;;;2.70;;
6420;SDS011;3243;50.958;7.012;2022-07-29T10:03:17;14.85;;;3.97;;
6420;SDS011;3243;50.958;7.012;2022-07-29T10:05:44;5.18;;;2.80;;
6420;SDS011;3243;50.958;7.012;2022-07-29T10:08:12;5.07;;;3.08;;
6420;SDS011;3243;50.958;7.012;2022-07-29T10:10:40;5.68;;;3.10;;
6420;SDS011;3243;50.958;7.012;2022-07-29T10:13:12;7.35;;;3.55;;
6420;SDS011;3243;50.958;7.012;2022-07-29T10:15:42;6.20;;;2.92;;
6420;SDS011;3243;50.958;7.012;2022-07-29T10:18:11;8.02;;;3.47;;
6420;SDS011;3243;50.958;7.012;2022-07-29T10:20:39;8.55;;;3.42;;
6420;SDS011;3243;50.958;7.012;2022-07-29T10:23:08;6.63;;;3.15;;
6420;SDS011;3243;50.958;7.012;2022-07-29T10:25:35;4.70;;;2.72;;
6420;SDS011;3243;50.958;7.012;2022-07-29T10:28:02;10.48;;;3.40;;
6420;SDS011;3243;50.958;7.012;2022-07-29T10:30:29;8.32;;;3.40;;
6420;SDS011;3243;50.958;7.012;2022-07-29T10:41:47;6.85;;;2.88;;
6420;SDS011;3243;50.958;7.012;2022-07-29T10:44:23;6.50;;;3.08;;
6420;SDS011;3243;50.958;7.012;2022-07-29T10:46:52;7.35;;;3.35;;
6420;SDS011;3243;50.958;7.012;2022-07-29T10:52:03;6.63;;;2.67;;
6420;SDS011;3243;50.958;7.012;2022-07-29T11:02:43;5.88;;;3.47;;
6420;SDS011;3243;50.958;7.012;2022-07-29T11:05:12;6.25;;;2.72;;
6420;SDS011;3243;50.958;7.012;2022-07-29T11:10:45;10.10;;;2.90;;
6420;SDS011;3243;50.958;7.012;2022-07-29T11:13:13;5.90;;;2.88;;
6420;SDS011;3243;50.958;7.012;2022-07-29T11:19:49;10.05;;;3.20;;
6420;SDS011;3243;50.958;7.012;2022-07-29T11:22:35;9.50;;;3.08;;
6420;SDS011;3243;50.958;7.012;2022-07-29T11:25:15;8.15;;;3.00;;
6420;SDS011;3243;50.958;7.012;2022-07-29T11:27:44;8.05;;;3.13;;
6420;SDS011;3243;50.958;7.012;2022-07-29T11:30:11;4.65;;;3.00;;
6420;SDS011;3243;50.958;7.012;2022-07-29T11:32:40;8.02;;;3.33;;
6420;SDS011;3243;50.958;7.012;2022-07-29T11:35:11;5.45;;;3.22;;
6420;SDS011;3243;50.958;7.012;2022-07-29T11:37:47;6.72;;;3.05;;
6420;SDS011;3243;50.958;7.012;2022-07-29T11:43:54;8.75;;;3.45;;
6420;SDS011;3243;50.958;7.012;2022-07-29T11:49:13;5.80;;;2.97;;
6420;SDS011;3243;50.958;7.012;2022-07-29T11:52:09;6.95;;;2.80;;
6420;SDS011;3243;50.958;7.012;2022-07-29T11:54:37;4.18;;;3.00;;
6420;SDS011;3243;50.958;7.012;2022-07-29T11:57:25;6.80;;;2.80;;
6420;SDS011;3243;50.958;7.012;2022-07-29T12:00:03;4.95;;;2.58;;
6420;SDS011;3243;50.958;7.012;2022-07-29T12:02:38;5.43;;;2.90;;
6420;SDS011;3243;50.958;7.012;2022-07-29T12:05:09;9.15;;;3.72;;
6420;SDS011;3243;50.958;7.012;2022-07-29T12:07:37;5.72;;;2.78;;
6420;SDS011;3243;50.958;7.012;2022-07-29T12:10:12;6.43;;;2.80;;
6420;SDS011;3243;50.958;7.012;2022-07-29T12:12:55;7.78;;;3.00;;
6420;SDS011;3243;50.958;7.012;2022-07-29T12:15:22;6.93;;;2.65;;
6420;SDS011;3243;50.958;7.012;2022-07-29T12:18:13;5.95;;;2.90;;
6420;SDS011;3243;50.958;7.012;2022-07-29T12:20:43;5.72;;;2.40;;
6420;SDS011;3243;50.958;7.012;2022-07-29T12:23:11;4.75;;;2.45;;
6420;SDS011;3243;50.958;7.012;2022-07-29T12:25:39;4.85;;;2.50;;
6420;SDS011;3243;50.958;7.012;2022-07-29T12:28:11;7.57;;;2.60;;
6420;SDS011;3243;50.958;7.012;2022-07-29T12:30:52;4.25;;;2.30;;
6420;SDS011;3243;50.958;7.012;2022-07-29T12:35:48;5.03;;;2.35;;
6420;SDS011;3243;50.958;7.012;2022-07-29T12:38:42;4.47;;;2.25;;
6420;SDS011;3243;50.958;7.012;2022-07-29T12:41:10;7.07;;;3.00;;
6420;SDS011;3243;50.958;7.012;2022-07-29T12:43:45;5.55;;;2.50;;
6420;SDS011;3243;50.958;7.012;2022-07-29T12:46:18;4.38;;;2.35;;
6420;SDS011;3243;50.958;7.012;2022-07-29T12:48:49;4.60;;;2.33;;
6420;SDS011;3243;50.958;7.012;2022-07-29T12:51:31;3.55;;;2.30;;
6420;SDS011;3243;50.958;7.012;2022-07-29T12:54:03;5.60;;;2.10;;
6420;SDS011;3243;50.958;7.012;2022-07-29T12:56:32;3.85;;;2.50;;
6420;SDS011;3243;50.958;7.012;2022-07-29T12:59:19;6.88;;;2.35;;
6420;SDS011;3243;50.958;7.012;2022-07-29T13:01:48;5.88;;;2.58;;
6420;SDS011;3243;50.958;7.012;2022-07-29T13:04:26;3.85;;;2.20;;
6420;SDS011;3243;50.958;7.012;2022-07-29T13:06:58;5.00;;;2.20;;
6420;SDS011;3243;50.958;7.012;2022-07-29T13:09:43;2.63;;;2.03;;
6420;SDS011;3243;50.958;7.012;2022-07-29T13:12:11;4.68;;;2.40;;
6420;SDS011;3243;50.958;7.012;2022-07-29T13:14:43;5.22;;;2.20;;
6420;SDS011;3243;50.958;7.012;2022-07-29T13:17:25;4.05;;;2.55;;
6420;SDS011;3243;50.958;7.012;2022-07-29T13:20:05;5.10;;;2.22;;
6420;SDS011;3243;50.958;7.012;2022-07-29T13:22:35;3.28;;;2.15;;
6420;SDS011;3243;50.958;7.012;2022-07-29T13:25:08;4.35;;;2.22;;
6420;SDS011;3243;50.958;7.012;2022-07-29T13:27:36;5.97;;;2.20;;
6420;SDS011;3243;50.958;7.012;2022-07-29T13:30:06;3.58;;;2.10;;
6420;SDS011;3243;50.958;7.012;2022-07-29T13:32:34;4.85;;;2.50;;
6420;SDS011;3243;50.958;7.012;2022-07-29T13:35:03;8.25;;;3.00;;
6420;SDS011;3243;50.958;7.012;2022-07-29T13:37:35;6.22;;;2.63;;
6420;SDS011;3243;50.958;7.012;2022-07-29T13:40:05;6.40;;;2.30;;
6420;SDS011;3243;50.958;7.012;2022-07-29T13:42:33;8.48;;;2.80;;
6420;SDS011;3243;50.958;7.012;2022-07-29T13:45:01;5.00;;;3.05;;
6420;SDS011;3243;50.958;7.012;2022-07-29T13:47:28;6.07;;;3.28;;
6420;SDS011;3243;50.958;7.012;2022-07-29T13:49:58;6.32;;;3.10;;
6420;SDS011;3243;50.958;7.012;2022-07-29T13:52:25;5.28;;;2.75;;
6420;SDS011;3243;50.958;7.012;2022-07-29T13:54:52;5.80;;;2.90;;
6420;SDS011;3243;50.958;7.012;2022-07-29T13:57:19;5.75;;;2.78;;
6420;SDS011;3243;50.958;7.012;2022-07-29T13:59:46;6.90;;;3.05;;
6420;SDS011;3243;50.958;7.012;2022-07-29T14:02:19;6.43;;;2.95;;
6420;SDS011;3243;50.958;7.012;2022-07-29T14:04:50;9.32;;;3.20;;
6420;SDS011;3243;50.958;7.012;2022-07-29T14:07:17;7.05;;;3.15;;
6420;SDS011;3243;50.958;7.012;2022-07-29T14:09:44;5.32;;;3.03;;
6420;SDS011;3243;50.958;7.012;2022-07-29T14:12:11;7.53;;;3.25;;
6420;SDS011;3243;50.958;7.012;2022-07-29T14:14:38;10.75;;;3.38;;
6420;SDS011;3243;50.958;7.012;2022-07-29T14:17:04;10.73;;;3.40;;
6420;SDS011;3243;50.958;7.012;2022-07-29T14:19:33;8.60;;;3.85;;
6420;SDS011;3243;50.958;7.012;2022-07-29T14:22:02;7.13;;;3.25;;
6420;SDS011;3243;50.958;7.012;2022-07-29T14:24:30;7.20;;;3.33;;
6420;SDS011;3243;50.958;7.012;2022-07-29T14:27:01;6.93;;;3.65;;
6420;SDS011;3243;50.958;7.012;2022-07-29T14:29:28;8.32;;;3.53;;
6420;SDS011;3243;50.958;7.012;2022-07-29T14:32:04;9.15;;;3.30;;
6420;SDS011;3243;50.958;7.012;2022-07-29T14:34:33;6.00;;;3.30;;
6420;SDS011;3243;50.958;7.012;2022-07-29T14:37:01;9.75;;;3.58;;
6420;SDS011;3243;50.958;7.012;2022-07-29T14:39:31;6.70;;;3.17;;
6420;SDS011;3243;50.958;7.012;2022-07-29T14:41:58;4.70;;;2.92;;
6420;SDS011;3243;50.958;7.012;2022-07-29T14:44:25;9.07;;;3.10;;
6420;SDS011;3243;50.958;7.012;2022-07-29T14:47:00;9.93;;;3.60;;
6420;SDS011;3243;50.958;7.012;2022-07-29T14:49:33;6.18;;;3.22;;
6420;SDS011;3243;50.958;7.012;2022-07-29T14:52:00;5.97;;;2.90;;
6420;SDS011;3243;50.958;7.012;2022-07-29T14:54:27;5.55;;;2.92;;
6420;SDS011;3243;50.958;7.012;2022-07-29T14:56:54;7.45;;;3.00;;
6420;SDS011;3243;50.958;7.012;2022-07-29T14:59:23;7.72;;;2.95;;
6420;SDS011;3243;50.958;7.012;2022-07-29T15:01:51;6.82;;;2.92;;
6420;SDS011;3243;50.958;7.012;2022-07-29T15:04:18;5.97;;;3.03;;
6420;SDS011;3243;50.958;7.012;2022-07-29T15:06:45;5.28;;;2.78;;
6420;SDS011;3243;50.958;7.012;2022-07-29T15:09:12;4.75;;;3.10;;
6420;SDS011;3243;50.958;7.012;2022-07-29T15:11:39;6.68;;;3.10;;
6420;SDS011;3243;50.958;7.012;2022-07-29T15:14:06;7.35;;;3.22;;
6420;SDS011;3243;50.958;7.012;2022-07-29T15:16:35;8.02;;;3.47;;
6420;SDS011;3243;50.958;7.012;2022-07-29T15:19:03;6.70;;;3.35;;
6420;SDS011;3243;50.958;7.012;2022-07-29T15:21:30;5.22;;;2.63;;
6420;SDS011;3243;50.958;7.012;2022-07-29T15:23:57;7.63;;;2.63;;
6420;SDS011;3243;50.958;7.012;2022-07-29T15:26:24;6.90;;;3.50;;
6420;SDS011;3243;50.958;7.012;2022-07-29T15:28:51;5.70;;;2.55;;
6420;SDS011;3243;50.958;7.012;2022-07-29T15:31:18;6.13;;;2.95;;
6420;SDS011;3243;50.958;7.012;2022-07-29T15:33:45;6.03;;;2.90;;
6420;SDS011;3243;50.958;7.012;2022-07-29T15:36:12;5.93;;;2.40;;
6420;SDS011;3243;50.958;7.012;2022-07-29T15:38:59;3.78;;;2.17;;
6420;SDS011;3243;50.958;7.012;2022-07-29T15:41:26;11.50;;;2.70;;
6420;SDS011;3243;50.958;7.012;2022-07-29T15:43:54;4.70;;;2.30;;
6420;SDS011;3243;50.958;7.012;2022-07-29T15:46:20;3.67;;;1.98;;
6420;SDS011;3243;50.958;7.012;2022-07-29T15:49:06;5.93;;;2.47;;
6420;SDS011;3243;50.958;7.012;2022-07-29T15:51:33;8.70;;;2.70;;
6420;SDS011;3243;50.958;7.012;2022-07-29T15:54:01;5.13;;;2.53;;
6420;SDS011;3243;50.958;7.012;2022-07-29T15:56:29;5.15;;;2.40;;
6420;SDS011;3243;50.958;7.012;2022-07-29T15:58:56;5.68;;;2.78;;
6420;SDS011;3243;50.958;7.012;2022-07-29T16:01:24;6.55;;;2.65;;
6420;SDS011;3243;50.958;7.012;2022-07-29T16:03:52;6.80;;;3.40;;
6420;SDS011;3243;50.958;7.012;2022-07-29T16:06:19;3.65;;;2.22;;
6420;SDS011;3243;50.958;7.012;2022-07-29T16:08:46;6.00;;;2.85;;
6420;SDS011;3243;50.958;7.012;2022-07-29T16:11:12;8.82;;;3.08;;
6420;SDS011;3243;50.958;7.012;2022-07-29T16:13:39;5.32;;;2.38;;
6420;SDS011;3243;50.958;7.012;2022-07-29T16:16:06;6.18;;;2.63;;
6420;SDS011;3243;50.958;7.012;2022-07-29T16:18:34;5.18;;;2.70;;
6420;SDS011;3243;50.958;7.012;2022-07-29T16:21:00;6.43;;;3.10;;
6420;SDS011;3243;50.958;7.012;2022-07-29T16:23:27;7.07;;;2.78;;
6420;SDS011;3243;50.958;7.012;2022-07-29T16:25:54;6.35;;;3.03;;
6420;SDS011;3243;50.958;7.012;2022-07-29T16:28:26;6.47;;;2.65;;
6420;SDS011;3243;50.958;7.012;2022-07-29T16:30:54;7.55;;;3.05;;